Ann Arbor, MI (48103)

4:11 AM EST on February 07, 2016 (GMT -0500)
Polo Fields | | Change Station
CLOSE
Current Station
Personal Weather Station
Location: Ann Arbor, MI
Elevation: 912 ft
Nearby Weather Stations

Elev 912 ft 42.27 °N, 83.82 °W | Updated 11 seconds ago

Overcast
Overcast
31.5 °F
Feels Like 27 °F
N
4.7
Wind Variable Wind from SSW
Gusts 5.8 mph

Today
High -- | Low -- °F
--% Chance of Precip.
Yesterday
High -- | Low -- °F
Precip. -- in
Pressure 30.08 in
Visibility 9.0 miles
Clouds Scattered Clouds 12000 ft
Windchill 27 °F
Dew Point 27 °F
Humidity 83%
Rainfall 0.00 in
Snow Depth Not available.
7:42 AM 5:56 PM
Waning Crescent, 2% visible
METAR KARB 070853Z AUTO 19003KT 9SM SCT120 M01/M03 A3005 RMK AO2 SLP184 T10111033 58016 TSNO
Pressure 30.08 in
Visibility 9.0 miles
Clouds Scattered Clouds 12000 ft
Windchill 27 °F
Dew Point 27 °F
Humidity 83%
Rainfall 0.00 in
Snow Depth Not available.
7:42 AM 5:56 PM
Waning Crescent, 2% visible
METAR KARB 070853Z AUTO 19003KT 9SM SCT120 M01/M03 A3005 RMK AO2 SLP184 T10111033 58016 TSNO

10-Day Weather Forecast

Almanac

Astronomy

Feb. 07, 2016 Rise Set
Actual Time
Civil Twilight
Nautical Twilight
Astronomical Twilight
Moon
Length of Visible Light
Length of Day
Tomorrow will be .
, % of the Moon is Illuminated

Today's Extremes

State Highs State Lows

Community

WunderPhotos

Upload Photos

1,891,171 photos uploaded!

WunderBlog® & News

Nearby

Air Quality

  Air Quality AQ Index Pollutant
Not available.

Snow Depth

Station Depth Elevation

Earthquake Activity

City Distance Mag. Time & Date
Minimum magnitude displayed is 2.5.

Coastal Water Temperatures

Place Temperature

Stations

Nearby Weather Stations

Station Location Temp. Windchill Dew Point Humidity Wind Precip. Elev Updated Type
                   

Watches & Warnings

There are currently no watches in effect.